createdAt,value
2022-08-09T00:02:30.406Z,21.30
2022-08-09T00:07:44.807Z,21.20
2022-08-09T00:12:47.288Z,21.10
2022-08-09T00:18:05.457Z,21.10
2022-08-09T00:23:54.570Z,21.00
2022-08-09T00:28:35.401Z,20.90
2022-08-09T00:33:50.557Z,20.80
2022-08-09T00:38:54.180Z,20.70
2022-08-09T00:44:13.805Z,20.60
2022-08-09T00:49:17.981Z,20.60
2022-08-09T00:54:23.213Z,20.50
2022-08-09T00:59:41.155Z,20.30
2022-08-09T01:05:14.411Z,20.20
2022-08-09T01:10:51.186Z,20.20
2022-08-09T01:15:56.716Z,20.10
2022-08-09T01:21:44.555Z,20.00
2022-08-09T01:27:11.895Z,19.90
2022-08-09T01:32:31.719Z,19.80
2022-08-09T01:38:05.761Z,19.70
2022-08-09T01:43:00.432Z,19.70
2022-08-09T01:48:06.171Z,19.60
2022-08-09T01:53:19.810Z,19.50
2022-08-09T01:58:24.118Z,19.50
2022-08-09T02:03:29.434Z,19.50
2022-08-09T02:08:57.451Z,19.40
2022-08-09T02:14:07.667Z,19.40
2022-08-09T02:19:10.450Z,19.30
2022-08-09T02:24:25.856Z,19.30
2022-08-09T02:29:34.266Z,19.30
2022-08-09T02:34:40.179Z,19.30
2022-08-09T02:40:01.518Z,19.30
2022-08-09T02:45:07.937Z,19.10
2022-08-09T02:50:14.535Z,19.20
2022-08-09T02:55:20.623Z,19.10
2022-08-09T03:00:26.098Z,19.10
2022-08-09T03:05:29.898Z,19.00
2022-08-09T03:10:38.530Z,19.10
2022-08-09T03:16:06.070Z,19.00
2022-08-09T03:21:05.311Z,19.00
2022-08-09T03:26:07.501Z,18.90
2022-08-09T03:31:22.647Z,18.90
2022-08-09T03:36:27.022Z,18.80
2022-08-09T03:41:48.287Z,18.80
2022-08-09T03:46:51.335Z,18.70
2022-08-09T03:52:00.450Z,18.70
2022-08-09T03:57:18.450Z,18.80
2022-08-09T04:02:30.127Z,18.60
2022-08-09T04:07:33.643Z,18.50
2022-08-09T04:12:51.870Z,18.60
2022-08-09T04:17:53.646Z,18.60
2022-08-09T04:23:00.659Z,18.70
2022-08-09T04:28:04.256Z,18.60
2022-08-09T04:33:06.284Z,18.50
2022-08-09T04:38:09.788Z,18.50
2022-08-09T04:43:12.475Z,18.50
2022-08-09T04:48:16.174Z,18.50
2022-08-09T04:53:18.071Z,18.50
2022-08-09T04:58:21.090Z,18.50
2022-08-09T05:03:40.255Z,18.50
2022-08-09T05:08:47.745Z,18.50
2022-08-09T05:13:50.119Z,18.50
2022-08-09T05:18:58.225Z,18.60
2022-08-09T05:24:02.502Z,18.60
2022-08-09T05:29:17.277Z,18.70
2022-08-09T05:34:20.206Z,18.80
2022-08-09T05:39:29.459Z,18.90
2022-08-09T05:44:34.515Z,19.00
2022-08-09T05:50:29.980Z,19.20
2022-08-09T05:55:03.053Z,19.30
2022-08-09T06:00:10.082Z,19.50
2022-08-09T06:05:13.199Z,19.50
2022-08-09T06:10:18.197Z,19.60
2022-08-09T06:15:21.374Z,19.70
2022-08-09T06:20:23.473Z,19.90
2022-08-09T06:25:26.539Z,20.00
2022-08-09T06:30:28.959Z,20.10
2022-08-09T06:35:35.804Z,20.20
2022-08-09T06:40:55.059Z,20.40
2022-08-09T06:46:07.875Z,20.50
2022-08-09T06:51:14.898Z,20.70
2022-08-09T06:56:18.588Z,20.70
2022-08-09T07:01:24.276Z,20.80
2022-08-09T07:06:29.733Z,21.00
2022-08-09T07:11:45.566Z,21.10
2022-08-09T07:16:57.958Z,21.20
2022-08-09T07:22:00.618Z,21.30
2022-08-09T07:27:04.134Z,21.40
2022-08-09T07:32:13.025Z,21.50
2022-08-09T07:37:16.036Z,21.60
2022-08-09T07:42:18.299Z,21.80
2022-08-09T07:47:21.048Z,22.00
2022-08-09T07:52:24.203Z,22.10
2022-08-09T07:57:35.626Z,22.20
2022-08-09T08:02:42.363Z,22.30
2022-08-09T08:08:42.869Z,22.50
2022-08-09T08:13:06.932Z,22.70
2022-08-09T08:18:14.420Z,22.90
2022-08-09T08:23:18.583Z,23.20
2022-08-09T08:28:31.854Z,23.30
2022-08-09T08:33:52.112Z,23.60
2022-08-09T08:38:55.113Z,23.80
2022-08-09T08:44:02.465Z,24.00
2022-08-09T08:49:07.504Z,24.10
2022-08-09T08:54:20.446Z,24.40
2022-08-09T08:59:47.076Z,24.60
2022-08-09T09:05:02.959Z,24.30
2022-08-09T09:10:12.240Z,25.00
2022-08-09T09:15:28.507Z,25.20
2022-08-09T09:20:36.131Z,25.40
2022-08-09T09:26:04.763Z,25.60
2022-08-09T09:31:17.482Z,25.60
2022-08-09T09:36:39.271Z,25.90
2022-08-09T09:41:51.298Z,26.10
2022-08-09T09:47:09.828Z,26.40
2022-08-09T09:52:16.291Z,26.50
2022-08-09T09:58:04.103Z,26.50
2022-08-09T10:02:56.569Z,26.70
2022-08-09T10:08:27.066Z,27.00
2022-08-09T10:13:45.122Z,27.10
2022-08-09T10:18:54.698Z,27.50
2022-08-09T10:24:00.581Z,27.50
2022-08-09T10:29:22.456Z,27.70
2022-08-09T10:34:33.791Z,28.00
2022-08-09T10:39:41.006Z,28.30
2022-08-09T10:45:04.419Z,28.60
2022-08-09T10:51:09.630Z,29.20
2022-08-09T10:56:26.246Z,29.60
2022-08-09T11:03:13.217Z,29.70
2022-08-09T11:07:00.895Z,29.80
2022-08-09T11:12:20.186Z,30.00
2022-08-09T11:17:22.179Z,30.40
2022-08-09T11:22:40.788Z,30.40
2022-08-09T11:28:05.379Z,30.60
2022-08-09T11:33:19.178Z,30.50
2022-08-09T11:38:32.363Z,30.70
2022-08-09T11:43:34.623Z,31.10
2022-08-09T11:48:49.208Z,31.40
2022-08-09T11:54:27.653Z,31.00
2022-08-09T11:59:33.546Z,31.50
2022-08-09T12:04:37.911Z,32.00
2022-08-09T12:09:40.268Z,32.20
2022-08-09T12:15:07.430Z,32.20
2022-08-09T12:20:21.887Z,32.40
2022-08-09T12:25:36.568Z,32.40
2022-08-09T12:30:39.664Z,32.10
2022-08-09T12:35:41.846Z,32.10
2022-08-09T12:40:46.745Z,32.20
2022-08-09T12:45:59.706Z,31.60
2022-08-09T12:51:03.792Z,31.70
2022-08-09T12:56:43.111Z,31.90
2022-08-09T13:01:34.546Z,31.90
2022-08-09T13:06:42.959Z,32.00
2022-08-09T13:11:50.796Z,32.00
2022-08-09T13:17:08.521Z,32.10
2022-08-09T13:22:45.536Z,32.30
2022-08-09T13:27:54.793Z,32.10
2022-08-09T13:32:57.440Z,32.30
2022-08-09T13:38:00.255Z,32.10
2022-08-09T13:43:09.981Z,31.90
2022-08-09T13:48:17.315Z,31.60
2022-08-09T13:53:19.313Z,31.80
2022-08-09T13:58:21.374Z,32.00
2022-08-09T14:04:03.810Z,32.00
2022-08-09T14:08:45.913Z,32.20
2022-08-09T14:14:23.195Z,32.60
2022-08-09T14:19:10.351Z,32.60
2022-08-09T14:24:18.568Z,33.00
2022-08-09T14:30:03.961Z,33.10
2022-08-09T14:34:46.261Z,33.60
2022-08-09T14:39:57.666Z,33.60
2022-08-09T14:46:38.935Z,33.50
2022-08-09T14:50:32.791Z,33.60
2022-08-09T14:55:34.961Z,33.00
2022-08-09T15:00:37.548Z,32.90
2022-08-09T15:05:50.197Z,33.40
2022-08-09T15:11:05.188Z,33.70
2022-08-09T15:16:09.814Z,33.90
2022-08-09T15:21:55.466Z,33.90
2022-08-09T15:26:33.495Z,33.20
2022-08-09T15:31:41.411Z,33.60
2022-08-09T15:36:48.200Z,33.30
2022-08-09T15:41:53.090Z,33.50
2022-08-09T15:46:56.860Z,33.30
2022-08-09T15:52:03.177Z,32.90
2022-08-09T15:57:08.603Z,34.30
2022-08-09T16:02:13.328Z,33.60
2022-08-09T16:07:16.053Z,33.90
2022-08-09T16:12:18.905Z,33.80
2022-08-09T16:17:22.200Z,34.30
2022-08-09T16:22:24.465Z,33.40
2022-08-09T16:27:29.705Z,33.70
2022-08-09T16:32:54.502Z,33.30
2022-08-09T16:37:59.412Z,33.50
2022-08-09T16:43:04.564Z,33.60
2022-08-09T16:48:41.446Z,33.80
2022-08-09T16:53:32.414Z,33.80
2022-08-09T16:58:36.921Z,33.60
2022-08-09T17:03:38.853Z,33.30
2022-08-09T17:09:01.467Z,33.10
2022-08-09T17:14:05.476Z,33.10
2022-08-09T17:19:10.530Z,33.20
2022-08-09T17:24:26.991Z,33.10
2022-08-09T17:29:37.937Z,33.20
2022-08-09T17:35:07.454Z,32.80
2022-08-09T17:40:18.218Z,32.70
2022-08-09T17:45:27.340Z,32.50
2022-08-09T17:50:40.557Z,32.40
2022-08-09T17:55:57.004Z,32.30
2022-08-09T18:01:02.055Z,32.00
2022-08-09T18:06:04.221Z,31.50
2022-08-09T18:11:16.751Z,31.00
2022-08-09T18:16:30.502Z,30.40
2022-08-09T18:21:41.538Z,29.90
2022-08-09T18:26:46.413Z,29.40
2022-08-09T18:31:55.091Z,29.00
2022-08-09T18:36:58.098Z,28.70
2022-08-09T18:42:05.417Z,28.50
2022-08-09T18:47:15.878Z,28.00
2022-08-09T18:52:24.767Z,28.00
2022-08-09T18:57:43.295Z,27.60
2022-08-09T19:02:46.680Z,27.40
2022-08-09T19:07:59.256Z,27.10
2022-08-09T19:13:19.204Z,26.90
2022-08-09T19:18:32.915Z,26.70
2022-08-09T19:24:32.636Z,26.50
2022-08-09T19:29:15.205Z,26.40
2022-08-09T19:34:23.149Z,26.10
2022-08-09T19:39:42.851Z,26.30
2022-08-09T19:44:51.066Z,25.50
2022-08-09T19:50:10.379Z,25.60
2022-08-09T19:55:16.051Z,25.70
2022-08-09T20:00:21.458Z,26.70
2022-08-09T20:05:23.794Z,25.10
2022-08-09T20:10:28.033Z,25.00
2022-08-09T20:16:33.707Z,24.90
2022-08-09T20:21:00.320Z,24.20
2022-08-09T20:26:04.009Z,24.70
2022-08-09T20:31:09.288Z,24.70
2022-08-09T20:36:13.922Z,24.60
2022-08-09T20:41:15.860Z,25.00
2022-08-09T20:46:33.813Z,24.50
2022-08-09T20:51:41.553Z,24.50
2022-08-09T20:56:49.684Z,24.40
2022-08-09T21:01:55.642Z,24.30
2022-08-09T21:06:57.525Z,24.20
2022-08-09T21:18:20.877Z,24.00
2022-08-09T21:22:37.942Z,24.00
2022-08-09T21:27:51.173Z,23.90
2022-08-09T21:32:54.687Z,23.70
2022-08-09T21:38:00.527Z,23.60
2022-08-09T21:43:06.743Z,23.50
2022-08-09T21:48:11.730Z,23.50
2022-08-09T21:53:39.945Z,23.40
2022-08-09T21:58:38.124Z,23.90
2022-08-09T22:03:48.527Z,23.00
2022-08-09T22:09:01.177Z,22.90
2022-08-09T22:14:03.348Z,22.70
2022-08-09T22:19:25.498Z,22.60
2022-08-09T22:24:35.984Z,22.70
2022-08-09T22:29:47.730Z,22.60
2022-08-09T22:35:02.500Z,22.20
2022-08-09T22:40:20.221Z,21.70
2022-08-09T22:48:10.614Z,22.10
2022-08-09T22:50:52.824Z,21.50
2022-08-09T22:56:29.691Z,21.80
2022-08-09T23:01:20.550Z,22.00
2022-08-09T23:06:32.782Z,21.50
2022-08-09T23:11:40.225Z,21.60
2022-08-09T23:16:47.933Z,21.40
2022-08-09T23:21:49.843Z,21.40
2022-08-09T23:26:51.724Z,21.30
2022-08-09T23:31:56.129Z,20.70
2022-08-09T23:36:57.990Z,21.40
2022-08-09T23:41:59.966Z,21.40
2022-08-09T23:47:01.844Z,20.90
2022-08-09T23:52:03.976Z,21.10
2022-08-09T23:57:05.883Z,20.90
